Zachary, Louisiana
Current Conditions -  °F | °C
As of 4:53 AM on Saturday 20 Dec 2014 (Local Time) from KBTR Reporting Station
Overcast Overcast  
Wind Chill: 44°   Ceiling: 600
Heat Index: 48°   Visibility: 10mi
Dew Point: 45°   Wind: 8mph
Humidity: 89%   Direction: 20°NNE
Pressure: 30.11"   Gusts: NA
Location:  30.65°N, 91.16°W
Report Text: KBTR 201053Z 02007KT 10SM OVC006 09/07 A3011 RMK AO2 CIG 006V010 SLP196 T00890072
Loading
Personal Weather Stations






























Interactive Weather Map New forecast layout! Learn more

10-Day Weather Forecast

Advertisements
Track Severe Weather on mobile